Dennis J. Pasentine — WDF2813 — position and weather

sailwx.info

Track history (hours):
 
Tides and Currents Weather Stations Pressure Air Temp Water Temp Dewpoint Dewpoint Depression Visibility Wind Speed Wind Dir Waves Ship Positions

Dennis J. Pasentine

Owner: Florida Marine Transporters, Inc., Mandeville, LA. More information available from US FCC via Universal Licensing System and Coast Guard Vessel Documentation Center.

Last reported at 2018-Feb-19 16:00 UTC. Time now 2018-Feb-19 16:09 UTC.
Position N 32°17' W 090°57'.

Length 42 m; draft 3.2 m.

Type: Ship (hazmat cat A). MMSI: 367432180.

Date/timePositionNaut miles runAvg speedWind from/ knotsBaromVisibWave heightAir tempDewpointWater temp
2018-Feb-19 16:00N 32°17' W 090°57'3 5.3
2018-Feb-19 15:30N 32°14' W 090°59'3 5.3
2018-Feb-19 15:00N 32°12' W 090°59'2 4.1
2018-Feb-19 14:28N 32°10' W 091°00'2 4.4
2018-Feb-19 14:00N 32°08' W 091°01'2 3.8
2018-Feb-19 13:30N 32°07' W 091°03'2 2.0
2018-Feb-19 12:20N 32°08' W 091°06'1 3.8
2018-Feb-19 12:00N 32°07' W 091°07'2 4.2
2018-Feb-19 11:27N 32°05' W 091°05'2 4.5
2018-Feb-19 10:59N 32°04' W 091°03'2 4.6
2018-Feb-19 10:30N 32°01' W 091°04'  
2018-Feb-10 02:49N 32°01' W 091°04'3 8.4
2018-Feb-10 02:27N 32°05' W 091°04'4 8.6
2018-Feb-10 02:00N 32°08' W 091°06'4 7.6
2018-Feb-10 01:30N 32°07' W 091°02'4 8.4
2018-Feb-10 01:00N 32°11' W 090°60'5 9.4
2018-Feb-10 00:30N 32°15' W 090°58'5 9.7
2018-Feb-10 00:00N 32°19' W 090°54'3 6.5
2018-Feb-09 23:30N 32°21' W 090°57'3 6.0
2018-Feb-09 23:00N 32°23' W 090°60'2 7.9
2018-Feb-09 22:46N 32°25' W 090°60'  
Track history (hours):
 
Tides and Currents Weather Stations Pressure Air Temp Water Temp Dewpoint Dewpoint Depression Visibility Wind Speed Wind Dir Waves Ship Positions

Dennis J. Pasentine

Owner: Florida Marine Transporters, Inc., Mandeville, LA. More information available from US FCC via Universal Licensing System and Coast Guard Vessel Documentation Center.

Last reported at 2018-Feb-19 16:00 UTC. Time now 2018-Feb-19 16:09 UTC.
Position N 32°17' W 090°57'.

Length 42 m; draft 3.2 m.

Type: Ship (hazmat cat A). MMSI: 367432180.

Date/timePositionNaut miles runAvg speedWind from/ knotsBaromVisibWave heightAir tempDewpointWater temp
2018-Feb-19 16:00N 32°17' W 090°57'3 5.3
2018-Feb-19 15:30N 32°14' W 090°59'3 5.3
2018-Feb-19 15:00N 32°12' W 090°59'2 4.1
2018-Feb-19 14:28N 32°10' W 091°00'2 4.4
2018-Feb-19 14:00N 32°08' W 091°01'2 3.8
2018-Feb-19 13:30N 32°07' W 091°03'2 2.0
2018-Feb-19 12:20N 32°08' W 091°06'1 3.8
2018-Feb-19 12:00N 32°07' W 091°07'2 4.2
2018-Feb-19 11:27N 32°05' W 091°05'2 4.5
2018-Feb-19 10:59N 32°04' W 091°03'2 4.6
2018-Feb-19 10:30N 32°01' W 091°04'  
2018-Feb-10 02:49N 32°01' W 091°04'3 8.4
2018-Feb-10 02:27N 32°05' W 091°04'4 8.6
2018-Feb-10 02:00N 32°08' W 091°06'4 7.6
2018-Feb-10 01:30N 32°07' W 091°02'4 8.4
2018-Feb-10 01:00N 32°11' W 090°60'5 9.4
2018-Feb-10 00:30N 32°15' W 090°58'5 9.7
2018-Feb-10 00:00N 32°19' W 090°54'3 6.5
2018-Feb-09 23:30N 32°21' W 090°57'3 6.0
2018-Feb-09 23:00N 32°23' W 090°60'2 7.9
2018-Feb-09 22:46N 32°25' W 090°60'  

Dump ship's entire track history